sensor_id;sensor_type;location;lat;lon;timestamp;P1;durP1;ratioP1;P2;durP2;ratioP2
57263;SDS011;43113;53.124;6.092;2022-09-09T00:07:07;4.57;;;2.92;;
57263;SDS011;43113;53.124;6.092;2022-09-09T00:10:05;4.22;;;2.50;;
57263;SDS011;43113;53.124;6.092;2022-09-09T00:15:26;6.90;;;2.70;;
57263;SDS011;43113;53.124;6.092;2022-09-09T00:18:05;5.45;;;2.90;;
57263;SDS011;43113;53.124;6.092;2022-09-09T00:20:49;4.45;;;2.30;;
57263;SDS011;43113;53.124;6.092;2022-09-09T00:28:28;6.82;;;2.70;;
57263;SDS011;43113;53.124;6.092;2022-09-09T00:30:59;5.13;;;2.67;;
57263;SDS011;43113;53.124;6.092;2022-09-09T00:33:35;4.55;;;2.50;;
57263;SDS011;43113;53.124;6.092;2022-09-09T00:36:04;4.10;;;2.63;;
57263;SDS011;43113;53.124;6.092;2022-09-09T00:38:41;3.42;;;2.47;;
57263;SDS011;43113;53.124;6.092;2022-09-09T00:43:43;5.80;;;2.60;;
57263;SDS011;43113;53.124;6.092;2022-09-09T01:02:58;6.60;;;2.80;;
57263;SDS011;43113;53.124;6.092;2022-09-09T01:08:03;4.75;;;2.70;;
57263;SDS011;43113;53.124;6.092;2022-09-09T01:13:21;3.72;;;2.55;;
57263;SDS011;43113;53.124;6.092;2022-09-09T01:15:56;5.70;;;2.75;;
57263;SDS011;43113;53.124;6.092;2022-09-09T01:18:38;3.33;;;2.10;;
57263;SDS011;43113;53.124;6.092;2022-09-09T01:28:46;3.95;;;2.30;;
57263;SDS011;43113;53.124;6.092;2022-09-09T01:31:28;3.55;;;2.10;;
57263;SDS011;43113;53.124;6.092;2022-09-09T01:33:58;3.50;;;2.13;;
57263;SDS011;43113;53.124;6.092;2022-09-09T01:38:53;4.82;;;2.38;;
57263;SDS011;43113;53.124;6.092;2022-09-09T01:41:19;3.97;;;2.15;;
57263;SDS011;43113;53.124;6.092;2022-09-09T01:43:45;4.40;;;2.50;;
57263;SDS011;43113;53.124;6.092;2022-09-09T01:46:11;4.55;;;2.53;;
57263;SDS011;43113;53.124;6.092;2022-09-09T01:48:37;7.88;;;2.50;;
57263;SDS011;43113;53.124;6.092;2022-09-09T01:51:04;3.85;;;2.20;;
57263;SDS011;43113;53.124;6.092;2022-09-09T01:53:30;3.85;;;2.22;;
57263;SDS011;43113;53.124;6.092;2022-09-09T01:56:12;4.15;;;2.08;;
57263;SDS011;43113;53.124;6.092;2022-09-09T01:59:47;3.17;;;1.90;;
57263;SDS011;43113;53.124;6.092;2022-09-09T02:02:18;3.65;;;2.45;;
57263;SDS011;43113;53.124;6.092;2022-09-09T02:07:54;3.15;;;2.00;;
57263;SDS011;43113;53.124;6.092;2022-09-09T02:10:40;6.32;;;2.10;;
57263;SDS011;43113;53.124;6.092;2022-09-09T02:13:13;7.97;;;2.42;;
57263;SDS011;43113;53.124;6.092;2022-09-09T02:15:50;3.58;;;2.13;;
57263;SDS011;43113;53.124;6.092;2022-09-09T02:18:55;4.97;;;2.33;;
57263;SDS011;43113;53.124;6.092;2022-09-09T02:21:27;3.65;;;2.45;;
57263;SDS011;43113;53.124;6.092;2022-09-09T02:23:55;4.40;;;2.55;;
57263;SDS011;43113;53.124;6.092;2022-09-09T02:26:24;3.22;;;2.05;;
57263;SDS011;43113;53.124;6.092;2022-09-09T02:28:52;3.22;;;1.98;;
57263;SDS011;43113;53.124;6.092;2022-09-09T02:31:21;6.60;;;3.00;;
57263;SDS011;43113;53.124;6.092;2022-09-09T02:33:51;3.95;;;2.20;;
57263;SDS011;43113;53.124;6.092;2022-09-09T02:36:23;6.50;;;3.28;;
57263;SDS011;43113;53.124;6.092;2022-09-09T02:38:51;4.30;;;2.40;;
57263;SDS011;43113;53.124;6.092;2022-09-09T02:41:30;3.58;;;2.10;;
57263;SDS011;43113;53.124;6.092;2022-09-09T02:43:58;4.35;;;2.42;;
57263;SDS011;43113;53.124;6.092;2022-09-09T02:46:27;5.43;;;2.72;;
57263;SDS011;43113;53.124;6.092;2022-09-09T02:51:50;9.77;;;3.45;;
57263;SDS011;43113;53.124;6.092;2022-09-09T02:54:30;5.07;;;2.90;;
57263;SDS011;43113;53.124;6.092;2022-09-09T02:57:10;5.22;;;2.45;;
57263;SDS011;43113;53.124;6.092;2022-09-09T02:59:50;4.80;;;2.90;;
57263;SDS011;43113;53.124;6.092;2022-09-09T03:02:20;5.13;;;2.90;;
57263;SDS011;43113;53.124;6.092;2022-09-09T03:04:45;7.03;;;3.25;;
57263;SDS011;43113;53.124;6.092;2022-09-09T03:07:16;5.28;;;2.83;;
57263;SDS011;43113;53.124;6.092;2022-09-09T03:09:42;4.13;;;2.60;;
57263;SDS011;43113;53.124;6.092;2022-09-09T03:12:08;5.32;;;3.00;;
57263;SDS011;43113;53.124;6.092;2022-09-09T03:14:36;6.10;;;3.25;;
57263;SDS011;43113;53.124;6.092;2022-09-09T03:17:03;4.40;;;2.63;;
57263;SDS011;43113;53.124;6.092;2022-09-09T03:19:30;4.45;;;2.72;;
57263;SDS011;43113;53.124;6.092;2022-09-09T03:21:56;6.25;;;2.70;;
57263;SDS011;43113;53.124;6.092;2022-09-09T03:24:23;6.88;;;3.33;;
57263;SDS011;43113;53.124;6.092;2022-09-09T03:26:49;6.57;;;3.05;;
57263;SDS011;43113;53.124;6.092;2022-09-09T03:29:15;4.63;;;2.65;;
57263;SDS011;43113;53.124;6.092;2022-09-09T03:31:42;5.25;;;2.83;;
57263;SDS011;43113;53.124;6.092;2022-09-09T03:34:08;5.00;;;2.58;;
57263;SDS011;43113;53.124;6.092;2022-09-09T03:36:34;4.72;;;2.97;;
57263;SDS011;43113;53.124;6.092;2022-09-09T03:39:00;6.20;;;3.65;;
57263;SDS011;43113;53.124;6.092;2022-09-09T03:41:27;5.75;;;3.13;;
57263;SDS011;43113;53.124;6.092;2022-09-09T03:43:54;7.30;;;2.97;;
57263;SDS011;43113;53.124;6.092;2022-09-09T03:46:20;7.13;;;3.72;;
57263;SDS011;43113;53.124;6.092;2022-09-09T03:48:47;4.43;;;2.45;;
57263;SDS011;43113;53.124;6.092;2022-09-09T03:51:12;7.70;;;3.15;;
57263;SDS011;43113;53.124;6.092;2022-09-09T03:53:39;5.45;;;3.10;;
57263;SDS011;43113;53.124;6.092;2022-09-09T03:56:05;5.88;;;3.05;;
57263;SDS011;43113;53.124;6.092;2022-09-09T03:58:35;4.95;;;2.75;;
57263;SDS011;43113;53.124;6.092;2022-09-09T04:01:03;5.53;;;2.70;;
57263;SDS011;43113;53.124;6.092;2022-09-09T04:03:31;7.13;;;3.50;;
57263;SDS011;43113;53.124;6.092;2022-09-09T04:05:58;4.60;;;2.85;;
57263;SDS011;43113;53.124;6.092;2022-09-09T04:08:25;6.47;;;3.35;;
57263;SDS011;43113;53.124;6.092;2022-09-09T04:10:51;4.10;;;2.88;;
57263;SDS011;43113;53.124;6.092;2022-09-09T04:13:18;6.97;;;2.58;;
57263;SDS011;43113;53.124;6.092;2022-09-09T04:15:54;8.25;;;4.65;;
57263;SDS011;43113;53.124;6.092;2022-09-09T04:18:24;4.97;;;3.00;;
57263;SDS011;43113;53.124;6.092;2022-09-09T04:20:56;6.20;;;3.17;;
57263;SDS011;43113;53.124;6.092;2022-09-09T04:23:22;5.15;;;3.47;;
57263;SDS011;43113;53.124;6.092;2022-09-09T04:25:51;5.40;;;3.25;;
57263;SDS011;43113;53.124;6.092;2022-09-09T04:28:18;6.97;;;2.95;;
57263;SDS011;43113;53.124;6.092;2022-09-09T04:30:46;4.55;;;3.00;;
57263;SDS011;43113;53.124;6.092;2022-09-09T04:33:12;5.07;;;2.90;;
57263;SDS011;43113;53.124;6.092;2022-09-09T04:35:38;5.63;;;2.80;;
57263;SDS011;43113;53.124;6.092;2022-09-09T04:38:05;7.03;;;3.30;;
57263;SDS011;43113;53.124;6.092;2022-09-09T04:40:34;5.10;;;3.08;;
57263;SDS011;43113;53.124;6.092;2022-09-09T04:43:00;5.40;;;3.15;;
57263;SDS011;43113;53.124;6.092;2022-09-09T04:45:28;4.53;;;2.95;;
57263;SDS011;43113;53.124;6.092;2022-09-09T04:47:55;6.10;;;2.72;;
57263;SDS011;43113;53.124;6.092;2022-09-09T04:50:20;4.22;;;2.55;;
57263;SDS011;43113;53.124;6.092;2022-09-09T04:52:46;4.13;;;2.65;;
57263;SDS011;43113;53.124;6.092;2022-09-09T04:55:12;5.50;;;3.08;;
57263;SDS011;43113;53.124;6.092;2022-09-09T04:57:38;6.18;;;3.38;;
57263;SDS011;43113;53.124;6.092;2022-09-09T05:00:04;4.88;;;3.15;;
57263;SDS011;43113;53.124;6.092;2022-09-09T05:02:36;4.88;;;3.35;;
57263;SDS011;43113;53.124;6.092;2022-09-09T05:05:03;6.85;;;3.30;;
57263;SDS011;43113;53.124;6.092;2022-09-09T05:07:30;6.47;;;3.50;;
57263;SDS011;43113;53.124;6.092;2022-09-09T05:09:56;5.13;;;3.20;;
57263;SDS011;43113;53.124;6.092;2022-09-09T05:12:22;7.20;;;3.78;;
57263;SDS011;43113;53.124;6.092;2022-09-09T05:14:50;5.38;;;3.00;;
57263;SDS011;43113;53.124;6.092;2022-09-09T05:17:16;6.60;;;3.85;;
57263;SDS011;43113;53.124;6.092;2022-09-09T05:19:43;7.32;;;3.85;;
57263;SDS011;43113;53.124;6.092;2022-09-09T05:22:09;7.43;;;3.50;;
57263;SDS011;43113;53.124;6.092;2022-09-09T05:24:37;8.32;;;3.60;;
57263;SDS011;43113;53.124;6.092;2022-09-09T05:27:03;6.72;;;3.97;;
57263;SDS011;43113;53.124;6.092;2022-09-09T05:29:30;7.40;;;4.22;;
57263;SDS011;43113;53.124;6.092;2022-09-09T05:31:58;6.38;;;4.25;;
57263;SDS011;43113;53.124;6.092;2022-09-09T05:34:24;8.13;;;4.15;;
57263;SDS011;43113;53.124;6.092;2022-09-09T05:36:50;7.63;;;4.78;;
57263;SDS011;43113;53.124;6.092;2022-09-09T05:39:17;7.57;;;4.22;;
57263;SDS011;43113;53.124;6.092;2022-09-09T05:41:43;6.32;;;3.78;;
57263;SDS011;43113;53.124;6.092;2022-09-09T05:44:09;8.10;;;4.57;;
57263;SDS011;43113;53.124;6.092;2022-09-09T05:46:34;5.97;;;3.70;;
57263;SDS011;43113;53.124;6.092;2022-09-09T05:49:01;7.28;;;4.22;;
57263;SDS011;43113;53.124;6.092;2022-09-09T05:51:28;6.95;;;4.07;;
57263;SDS011;43113;53.124;6.092;2022-09-09T05:53:55;7.78;;;4.28;;
57263;SDS011;43113;53.124;6.092;2022-09-09T05:56:24;5.03;;;3.08;;
57263;SDS011;43113;53.124;6.092;2022-09-09T05:58:52;8.32;;;4.03;;
57263;SDS011;43113;53.124;6.092;2022-09-09T06:01:23;7.07;;;3.60;;
57263;SDS011;43113;53.124;6.092;2022-09-09T06:04:07;5.65;;;3.17;;
57263;SDS011;43113;53.124;6.092;2022-09-09T06:06:34;5.10;;;3.15;;
57263;SDS011;43113;53.124;6.092;2022-09-09T06:09:04;6.38;;;3.40;;
57263;SDS011;43113;53.124;6.092;2022-09-09T06:11:34;6.93;;;3.70;;
57263;SDS011;43113;53.124;6.092;2022-09-09T06:14:02;5.60;;;3.45;;
57263;SDS011;43113;53.124;6.092;2022-09-09T06:16:29;5.88;;;3.65;;
57263;SDS011;43113;53.124;6.092;2022-09-09T06:18:55;4.53;;;2.85;;
57263;SDS011;43113;53.124;6.092;2022-09-09T06:21:23;7.65;;;3.97;;
57263;SDS011;43113;53.124;6.092;2022-09-09T06:23:53;5.38;;;3.15;;
57263;SDS011;43113;53.124;6.092;2022-09-09T06:26:23;7.70;;;4.03;;
57263;SDS011;43113;53.124;6.092;2022-09-09T06:29:03;6.65;;;4.18;;
57263;SDS011;43113;53.124;6.092;2022-09-09T06:31:29;6.75;;;4.18;;
57263;SDS011;43113;53.124;6.092;2022-09-09T06:33:57;7.75;;;4.25;;
57263;SDS011;43113;53.124;6.092;2022-09-09T06:36:24;10.90;;;4.28;;
57263;SDS011;43113;53.124;6.092;2022-09-09T06:38:51;6.00;;;3.75;;
57263;SDS011;43113;53.124;6.092;2022-09-09T06:41:18;8.50;;;4.57;;
57263;SDS011;43113;53.124;6.092;2022-09-09T06:43:45;6.82;;;4.00;;
57263;SDS011;43113;53.124;6.092;2022-09-09T06:46:12;7.35;;;3.58;;
57263;SDS011;43113;53.124;6.092;2022-09-09T06:48:39;6.05;;;3.72;;
57263;SDS011;43113;53.124;6.092;2022-09-09T06:51:07;7.15;;;3.80;;
57263;SDS011;43113;53.124;6.092;2022-09-09T06:53:39;6.95;;;3.60;;
57263;SDS011;43113;53.124;6.092;2022-09-09T06:58:35;6.57;;;3.78;;
57263;SDS011;43113;53.124;6.092;2022-09-09T07:01:08;8.48;;;3.90;;
57263;SDS011;43113;53.124;6.092;2022-09-09T07:03:34;7.35;;;3.45;;
57263;SDS011;43113;53.124;6.092;2022-09-09T07:06:00;5.35;;;3.38;;
57263;SDS011;43113;53.124;6.092;2022-09-09T07:08:26;4.97;;;3.00;;
57263;SDS011;43113;53.124;6.092;2022-09-09T07:10:53;6.78;;;3.42;;
57263;SDS011;43113;53.124;6.092;2022-09-09T07:13:28;5.43;;;2.95;;
57263;SDS011;43113;53.124;6.092;2022-09-09T07:15:53;5.55;;;3.30;;
57263;SDS011;43113;53.124;6.092;2022-09-09T07:18:19;5.82;;;3.00;;
57263;SDS011;43113;53.124;6.092;2022-09-09T07:20:55;4.97;;;2.95;;
57263;SDS011;43113;53.124;6.092;2022-09-09T07:23:22;7.45;;;3.45;;
57263;SDS011;43113;53.124;6.092;2022-09-09T07:25:48;5.40;;;3.00;;
57263;SDS011;43113;53.124;6.092;2022-09-09T07:28:15;4.30;;;2.65;;
57263;SDS011;43113;53.124;6.092;2022-09-09T07:30:41;6.80;;;2.95;;
57263;SDS011;43113;53.124;6.092;2022-09-09T07:33:07;5.45;;;3.05;;
57263;SDS011;43113;53.124;6.092;2022-09-09T07:35:37;5.40;;;2.53;;
57263;SDS011;43113;53.124;6.092;2022-09-09T07:38:03;4.82;;;2.80;;
57263;SDS011;43113;53.124;6.092;2022-09-09T07:40:35;5.47;;;2.85;;
57263;SDS011;43113;53.124;6.092;2022-09-09T07:43:01;5.30;;;2.75;;
57263;SDS011;43113;53.124;6.092;2022-09-09T07:45:27;5.10;;;2.53;;
57263;SDS011;43113;53.124;6.092;2022-09-09T07:47:57;4.55;;;2.42;;
57263;SDS011;43113;53.124;6.092;2022-09-09T07:50:23;3.88;;;2.00;;
57263;SDS011;43113;53.124;6.092;2022-09-09T07:52:53;3.08;;;1.70;;
57263;SDS011;43113;53.124;6.092;2022-09-09T07:55:19;3.10;;;1.73;;
57263;SDS011;43113;53.124;6.092;2022-09-09T07:57:46;2.60;;;1.58;;
57263;SDS011;43113;53.124;6.092;2022-09-09T08:00:12;3.80;;;2.15;;
57263;SDS011;43113;53.124;6.092;2022-09-09T08:02:39;3.10;;;1.90;;
57263;SDS011;43113;53.124;6.092;2022-09-09T08:05:06;4.63;;;2.33;;
57263;SDS011;43113;53.124;6.092;2022-09-09T08:07:32;5.07;;;1.90;;
57263;SDS011;43113;53.124;6.092;2022-09-09T08:09:58;2.08;;;1.35;;
57263;SDS011;43113;53.124;6.092;2022-09-09T08:12:23;3.30;;;1.80;;
57263;SDS011;43113;53.124;6.092;2022-09-09T08:14:49;4.55;;;1.50;;
57263;SDS011;43113;53.124;6.092;2022-09-09T08:17:16;5.43;;;1.73;;
57263;SDS011;43113;53.124;6.092;2022-09-09T08:19:45;3.67;;;1.52;;
57263;SDS011;43113;53.124;6.092;2022-09-09T08:22:10;4.40;;;1.60;;
57263;SDS011;43113;53.124;6.092;2022-09-09T08:24:36;3.17;;;1.50;;
57263;SDS011;43113;53.124;6.092;2022-09-09T08:27:02;2.13;;;1.48;;
57263;SDS011;43113;53.124;6.092;2022-09-09T08:29:30;4.32;;;1.50;;
57263;SDS011;43113;53.124;6.092;2022-09-09T08:31:59;4.28;;;1.70;;
57263;SDS011;43113;53.124;6.092;2022-09-09T08:34:30;4.00;;;1.75;;
57263;SDS011;43113;53.124;6.092;2022-09-09T08:36:58;4.70;;;1.80;;
57263;SDS011;43113;53.124;6.092;2022-09-09T08:39:26;3.35;;;1.63;;
57263;SDS011;43113;53.124;6.092;2022-09-09T08:41:56;2.50;;;1.30;;
57263;SDS011;43113;53.124;6.092;2022-09-09T08:50:27;4.10;;;1.92;;
57263;SDS011;43113;53.124;6.092;2022-09-09T08:58:32;3.42;;;1.42;;
57263;SDS011;43113;53.124;6.092;2022-09-09T09:09:53;6.35;;;1.98;;
57263;SDS011;43113;53.124;6.092;2022-09-09T09:12:24;3.65;;;1.30;;
57263;SDS011;43113;53.124;6.092;2022-09-09T09:14:54;2.65;;;1.50;;
57263;SDS011;43113;53.124;6.092;2022-09-09T09:17:24;4.70;;;1.25;;
57263;SDS011;43113;53.124;6.092;2022-09-09T09:19:53;6.28;;;2.00;;
57263;SDS011;43113;53.124;6.092;2022-09-09T09:22:20;3.75;;;1.20;;
57263;SDS011;43113;53.124;6.092;2022-09-09T09:30:05;2.75;;;1.45;;
57263;SDS011;43113;53.124;6.092;2022-09-09T09:32:44;3.85;;;1.23;;
57263;SDS011;43113;53.124;6.092;2022-09-09T09:35:28;3.33;;;1.63;;
57263;SDS011;43113;53.124;6.092;2022-09-09T09:37:53;2.65;;;1.10;;
57263;SDS011;43113;53.124;6.092;2022-09-09T09:40:22;6.00;;;1.40;;
57263;SDS011;43113;53.124;6.092;2022-09-09T09:42:58;3.72;;;1.50;;
57263;SDS011;43113;53.124;6.092;2022-09-09T09:45:32;2.90;;;1.42;;
57263;SDS011;43113;53.124;6.092;2022-09-09T09:48:13;3.35;;;1.27;;
57263;SDS011;43113;53.124;6.092;2022-09-09T09:53:20;4.03;;;1.33;;
57263;SDS011;43113;53.124;6.092;2022-09-09T09:55:49;2.25;;;1.55;;
57263;SDS011;43113;53.124;6.092;2022-09-09T09:58:18;2.60;;;1.17;;
57263;SDS011;43113;53.124;6.092;2022-09-09T10:00:48;1.83;;;0.90;;
57263;SDS011;43113;53.124;6.092;2022-09-09T10:03:31;3.10;;;1.27;;
57263;SDS011;43113;53.124;6.092;2022-09-09T10:06:04;2.63;;;1.30;;
57263;SDS011;43113;53.124;6.092;2022-09-09T10:08:33;1.52;;;1.10;;
57263;SDS011;43113;53.124;6.092;2022-09-09T10:13:55;5.28;;;1.30;;
57263;SDS011;43113;53.124;6.092;2022-09-09T10:16:40;1.70;;;1.58;;
57263;SDS011;43113;53.124;6.092;2022-09-09T10:19:33;3.63;;;1.13;;
57263;SDS011;43113;53.124;6.092;2022-09-09T10:24:59;1.83;;;0.88;;
57263;SDS011;43113;53.124;6.092;2022-09-09T10:44:00;1.30;;;0.88;;
57263;SDS011;43113;53.124;6.092;2022-09-09T10:52:29;2.30;;;0.80;;
57263;SDS011;43113;53.124;6.092;2022-09-09T10:55:16;5.38;;;1.10;;
57263;SDS011;43113;53.124;6.092;2022-09-09T10:57:51;2.30;;;0.90;;
57263;SDS011;43113;53.124;6.092;2022-09-09T11:00:23;4.30;;;1.48;;
57263;SDS011;43113;53.124;6.092;2022-09-09T11:03:04;2.65;;;1.17;;
57263;SDS011;43113;53.124;6.092;2022-09-09T11:08:14;3.63;;;1.38;;
57263;SDS011;43113;53.124;6.092;2022-09-09T11:10:45;2.92;;;1.05;;
57263;SDS011;43113;53.124;6.092;2022-09-09T11:13:41;4.38;;;1.50;;
57263;SDS011;43113;53.124;6.092;2022-09-09T11:16:22;3.80;;;1.27;;
57263;SDS011;43113;53.124;6.092;2022-09-09T11:21:31;1.05;;;0.77;;
57263;SDS011;43113;53.124;6.092;2022-09-09T11:24:14;2.97;;;1.00;;
57263;SDS011;43113;53.124;6.092;2022-09-09T11:26:43;2.17;;;0.80;;
57263;SDS011;43113;53.124;6.092;2022-09-09T11:37:33;2.03;;;1.15;;
57263;SDS011;43113;53.124;6.092;2022-09-09T11:40:24;3.80;;;1.40;;
57263;SDS011;43113;53.124;6.092;2022-09-09T11:45:42;2.75;;;0.98;;
57263;SDS011;43113;53.124;6.092;2022-09-09T11:50:59;2.08;;;0.80;;
57263;SDS011;43113;53.124;6.092;2022-09-09T11:53:32;2.50;;;1.00;;
57263;SDS011;43113;53.124;6.092;2022-09-09T11:56:09;2.30;;;1.00;;
57263;SDS011;43113;53.124;6.092;2022-09-09T11:58:39;3.92;;;1.75;;
57263;SDS011;43113;53.124;6.092;2022-09-09T12:01:27;3.33;;;1.67;;
57263;SDS011;43113;53.124;6.092;2022-09-09T12:09:52;2.92;;;1.50;;
57263;SDS011;43113;53.124;6.092;2022-09-09T12:12:44;3.60;;;0.98;;
57263;SDS011;43113;53.124;6.092;2022-09-09T12:17:41;2.42;;;1.55;;
57263;SDS011;43113;53.124;6.092;2022-09-09T12:20:34;4.28;;;1.05;;
57263;SDS011;43113;53.124;6.092;2022-09-09T12:25:57;2.85;;;1.08;;
57263;SDS011;43113;53.124;6.092;2022-09-09T12:34:02;6.80;;;1.55;;
57263;SDS011;43113;53.124;6.092;2022-09-09T12:36:39;4.57;;;0.98;;
57263;SDS011;43113;53.124;6.092;2022-09-09T12:39:17;2.65;;;1.38;;
57263;SDS011;43113;53.124;6.092;2022-09-09T12:41:50;4.82;;;1.25;;
57263;SDS011;43113;53.124;6.092;2022-09-09T12:44:22;1.65;;;0.82;;
57263;SDS011;43113;53.124;6.092;2022-09-09T12:46:48;2.30;;;0.98;;
57263;SDS011;43113;53.124;6.092;2022-09-09T12:52:00;2.10;;;1.27;;
57263;SDS011;43113;53.124;6.092;2022-09-09T12:54:47;2.28;;;0.88;;
57263;SDS011;43113;53.124;6.092;2022-09-09T12:57:13;4.05;;;1.30;;
57263;SDS011;43113;53.124;6.092;2022-09-09T12:59:41;2.00;;;1.27;;
57263;SDS011;43113;53.124;6.092;2022-09-09T13:02:23;1.63;;;0.82;;
57263;SDS011;43113;53.124;6.092;2022-09-09T13:04:51;0.90;;;0.60;;
57263;SDS011;43113;53.124;6.092;2022-09-09T13:07:19;4.15;;;1.25;;
57263;SDS011;43113;53.124;6.092;2022-09-09T13:09:47;2.40;;;1.05;;
57263;SDS011;43113;53.124;6.092;2022-09-09T13:12:18;1.80;;;0.95;;
57263;SDS011;43113;53.124;6.092;2022-09-09T13:14:52;3.55;;;1.00;;
57263;SDS011;43113;53.124;6.092;2022-09-09T13:17:27;3.33;;;1.10;;
57263;SDS011;43113;53.124;6.092;2022-09-09T13:19:56;3.35;;;1.05;;
57263;SDS011;43113;53.124;6.092;2022-09-09T13:22:27;3.50;;;0.98;;
57263;SDS011;43113;53.124;6.092;2022-09-09T13:25:17;2.75;;;0.93;;
57263;SDS011;43113;53.124;6.092;2022-09-09T13:27:53;1.98;;;0.80;;
57263;SDS011;43113;53.124;6.092;2022-09-09T13:30:23;2.05;;;1.15;;
57263;SDS011;43113;53.124;6.092;2022-09-09T13:35:34;1.70;;;0.90;;
57263;SDS011;43113;53.124;6.092;2022-09-09T13:38:12;3.17;;;1.30;;
57263;SDS011;43113;53.124;6.092;2022-09-09T13:40:52;1.15;;;0.88;;
57263;SDS011;43113;53.124;6.092;2022-09-09T13:43:22;3.40;;;1.50;;
57263;SDS011;43113;53.124;6.092;2022-09-09T13:45:54;3.28;;;0.95;;
57263;SDS011;43113;53.124;6.092;2022-09-09T13:48:25;3.80;;;1.10;;
57263;SDS011;43113;53.124;6.092;2022-09-09T13:50:55;1.42;;;1.05;;
57263;SDS011;43113;53.124;6.092;2022-09-09T13:53:25;1.25;;;0.95;;
57263;SDS011;43113;53.124;6.092;2022-09-09T13:55:52;1.50;;;0.82;;
57263;SDS011;43113;53.124;6.092;2022-09-09T13:58:18;1.67;;;0.82;;
57263;SDS011;43113;53.124;6.092;2022-09-09T14:00:45;1.90;;;1.13;;
57263;SDS011;43113;53.124;6.092;2022-09-09T14:03:11;3.15;;;1.05;;
57263;SDS011;43113;53.124;6.092;2022-09-09T14:05:37;1.52;;;0.80;;
57263;SDS011;43113;53.124;6.092;2022-09-09T14:08:06;3.13;;;1.00;;
57263;SDS011;43113;53.124;6.092;2022-09-09T14:10:36;0.68;;;0.68;;
57263;SDS011;43113;53.124;6.092;2022-09-09T14:13:02;3.20;;;0.88;;
57263;SDS011;43113;53.124;6.092;2022-09-09T14:15:28;1.70;;;0.85;;
57263;SDS011;43113;53.124;6.092;2022-09-09T14:17:54;4.47;;;0.77;;
57263;SDS011;43113;53.124;6.092;2022-09-09T14:20:20;4.00;;;0.70;;
57263;SDS011;43113;53.124;6.092;2022-09-09T14:22:46;3.30;;;1.08;;
57263;SDS011;43113;53.124;6.092;2022-09-09T14:25:11;1.75;;;0.85;;
57263;SDS011;43113;53.124;6.092;2022-09-09T14:27:40;1.88;;;0.75;;
57263;SDS011;43113;53.124;6.092;2022-09-09T14:30:07;0.73;;;0.73;;
57263;SDS011;43113;53.124;6.092;2022-09-09T14:32:34;2.50;;;0.90;;
57263;SDS011;43113;53.124;6.092;2022-09-09T14:35:00;1.55;;;0.70;;
57263;SDS011;43113;53.124;6.092;2022-09-09T14:37:26;2.67;;;0.80;;
57263;SDS011;43113;53.124;6.092;2022-09-09T14:39:52;2.00;;;0.73;;
57263;SDS011;43113;53.124;6.092;2022-09-09T14:42:19;2.58;;;0.85;;
57263;SDS011;43113;53.124;6.092;2022-09-09T14:44:44;3.22;;;0.95;;
57263;SDS011;43113;53.124;6.092;2022-09-09T14:47:13;3.58;;;1.27;;
57263;SDS011;43113;53.124;6.092;2022-09-09T14:49:38;0.60;;;0.60;;
57263;SDS011;43113;53.124;6.092;2022-09-09T14:52:04;2.83;;;0.98;;
57263;SDS011;43113;53.124;6.092;2022-09-09T14:54:39;3.08;;;1.08;;
57263;SDS011;43113;53.124;6.092;2022-09-09T14:57:06;3.33;;;1.10;;
57263;SDS011;43113;53.124;6.092;2022-09-09T14:59:31;3.35;;;1.17;;
57263;SDS011;43113;53.124;6.092;2022-09-09T15:01:57;1.45;;;0.95;;
57263;SDS011;43113;53.124;6.092;2022-09-09T15:04:25;1.33;;;0.73;;
57263;SDS011;43113;53.124;6.092;2022-09-09T15:06:52;1.60;;;0.80;;
57263;SDS011;43113;53.124;6.092;2022-09-09T15:09:19;2.70;;;0.90;;
57263;SDS011;43113;53.124;6.092;2022-09-09T15:11:44;1.60;;;0.93;;
57263;SDS011;43113;53.124;6.092;2022-09-09T15:14:10;2.85;;;1.17;;
57263;SDS011;43113;53.124;6.092;2022-09-09T15:16:37;2.80;;;0.90;;
57263;SDS011;43113;53.124;6.092;2022-09-09T15:19:03;3.03;;;1.00;;
57263;SDS011;43113;53.124;6.092;2022-09-09T15:21:30;1.30;;;0.93;;
57263;SDS011;43113;53.124;6.092;2022-09-09T15:23:58;1.73;;;0.90;;
57263;SDS011;43113;53.124;6.092;2022-09-09T15:26:24;1.95;;;0.88;;
57263;SDS011;43113;53.124;6.092;2022-09-09T15:28:52;1.20;;;1.10;;
57263;SDS011;43113;53.124;6.092;2022-09-09T15:31:28;2.72;;;1.00;;
57263;SDS011;43113;53.124;6.092;2022-09-09T15:33:56;3.70;;;1.40;;
57263;SDS011;43113;53.124;6.092;2022-09-09T15:36:27;3.90;;;1.65;;
57263;SDS011;43113;53.124;6.092;2022-09-09T15:38:53;1.60;;;1.20;;
57263;SDS011;43113;53.124;6.092;2022-09-09T15:41:20;1.80;;;1.20;;
57263;SDS011;43113;53.124;6.092;2022-09-09T15:43:50;2.78;;;1.27;;
57263;SDS011;43113;53.124;6.092;2022-09-09T15:46:36;1.75;;;1.42;;
57263;SDS011;43113;53.124;6.092;2022-09-09T15:51:34;2.08;;;1.33;;
57263;SDS011;43113;53.124;6.092;2022-09-09T15:54:00;2.33;;;1.23;;
57263;SDS011;43113;53.124;6.092;2022-09-09T15:56:26;2.38;;;1.33;;
57263;SDS011;43113;53.124;6.092;2022-09-09T15:58:55;4.15;;;1.70;;
57263;SDS011;43113;53.124;6.092;2022-09-09T16:01:22;3.35;;;1.50;;
57263;SDS011;43113;53.124;6.092;2022-09-09T16:03:48;1.00;;;0.93;;
57263;SDS011;43113;53.124;6.092;2022-09-09T16:06:19;2.80;;;1.30;;
57263;SDS011;43113;53.124;6.092;2022-09-09T16:08:47;4.43;;;1.33;;
57263;SDS011;43113;53.124;6.092;2022-09-09T16:11:22;2.85;;;1.20;;
57263;SDS011;43113;53.124;6.092;2022-09-09T16:13:50;0.98;;;0.85;;
57263;SDS011;43113;53.124;6.092;2022-09-09T16:16:18;4.03;;;1.58;;
57263;SDS011;43113;53.124;6.092;2022-09-09T16:18:50;1.67;;;1.00;;
57263;SDS011;43113;53.124;6.092;2022-09-09T16:21:22;2.08;;;1.25;;
57263;SDS011;43113;53.124;6.092;2022-09-09T16:23:53;1.88;;;1.15;;
57263;SDS011;43113;53.124;6.092;2022-09-09T16:26:19;1.52;;;1.23;;
57263;SDS011;43113;53.124;6.092;2022-09-09T16:28:45;2.70;;;1.40;;
57263;SDS011;43113;53.124;6.092;2022-09-09T16:31:15;3.45;;;1.40;;
57263;SDS011;43113;53.124;6.092;2022-09-09T16:33:45;1.80;;;1.17;;
57263;SDS011;43113;53.124;6.092;2022-09-09T16:36:13;1.83;;;1.20;;
57263;SDS011;43113;53.124;6.092;2022-09-09T16:38:42;2.47;;;1.52;;
57263;SDS011;43113;53.124;6.092;2022-09-09T16:41:09;2.20;;;1.17;;
57263;SDS011;43113;53.124;6.092;2022-09-09T16:43:36;1.75;;;1.00;;
57263;SDS011;43113;53.124;6.092;2022-09-09T16:46:02;3.83;;;1.58;;
57263;SDS011;43113;53.124;6.092;2022-09-09T16:48:36;2.05;;;1.20;;
57263;SDS011;43113;53.124;6.092;2022-09-09T16:51:05;2.38;;;1.17;;
57263;SDS011;43113;53.124;6.092;2022-09-09T16:53:35;2.55;;;1.40;;
57263;SDS011;43113;53.124;6.092;2022-09-09T16:56:05;2.40;;;1.30;;
57263;SDS011;43113;53.124;6.092;2022-09-09T16:58:32;3.10;;;1.58;;
57263;SDS011;43113;53.124;6.092;2022-09-09T17:00:59;4.07;;;1.63;;
57263;SDS011;43113;53.124;6.092;2022-09-09T17:03:28;3.42;;;1.67;;
57263;SDS011;43113;53.124;6.092;2022-09-09T17:05:54;3.95;;;1.88;;
57263;SDS011;43113;53.124;6.092;2022-09-09T17:08:20;2.33;;;1.30;;
57263;SDS011;43113;53.124;6.092;2022-09-09T17:10:46;5.18;;;1.35;;
57263;SDS011;43113;53.124;6.092;2022-09-09T17:13:12;2.67;;;1.33;;
57263;SDS011;43113;53.124;6.092;2022-09-09T17:15:39;3.17;;;1.40;;
57263;SDS011;43113;53.124;6.092;2022-09-09T17:18:08;1.25;;;1.10;;
57263;SDS011;43113;53.124;6.092;2022-09-09T17:20:38;1.83;;;1.40;;
57263;SDS011;43113;53.124;6.092;2022-09-09T17:23:05;2.90;;;1.08;;
57263;SDS011;43113;53.124;6.092;2022-09-09T17:25:32;2.72;;;1.60;;
57263;SDS011;43113;53.124;6.092;2022-09-09T17:27:58;2.35;;;1.40;;
57263;SDS011;43113;53.124;6.092;2022-09-09T17:30:25;3.40;;;1.17;;
57263;SDS011;43113;53.124;6.092;2022-09-09T17:32:52;3.53;;;1.20;;
57263;SDS011;43113;53.124;6.092;2022-09-09T17:35:18;5.32;;;1.65;;
57263;SDS011;43113;53.124;6.092;2022-09-09T17:37:44;2.03;;;1.35;;
57263;SDS011;43113;53.124;6.092;2022-09-09T17:40:10;2.35;;;1.40;;
57263;SDS011;43113;53.124;6.092;2022-09-09T17:42:36;3.00;;;1.30;;